createdAt,value
2023-04-04T00:00:23.422Z,24.99
2023-04-04T00:01:23.418Z,24.99
2023-04-04T00:02:23.415Z,25.01
2023-04-04T00:03:23.523Z,25.02
2023-04-04T00:04:23.454Z,25.01
2023-04-04T00:05:23.385Z,25.02
2023-04-04T00:06:23.380Z,25.04
2023-04-04T00:07:23.375Z,25.05
2023-04-04T00:08:23.367Z,25.02
2023-04-04T00:09:23.362Z,25.05
2023-04-04T00:10:23.358Z,25.06
2023-04-04T00:11:23.352Z,25.05
2023-04-04T00:12:25.875Z,25.08
2023-04-04T00:13:23.363Z,25.09
2023-04-04T00:14:23.337Z,25.08
2023-04-04T00:15:23.350Z,25.08
2023-04-04T00:16:23.348Z,25.09
2023-04-04T00:17:23.325Z,25.09
2023-04-04T00:18:23.312Z,25.09
2023-04-04T00:19:23.304Z,25.11
2023-04-04T00:20:23.299Z,25.11
2023-04-04T00:21:23.288Z,25.15
2023-04-04T00:22:23.277Z,25.12
2023-04-04T00:23:23.282Z,25.12
2023-04-04T00:24:23.276Z,25.18
2023-04-04T00:25:23.280Z,25.15
2023-04-04T00:26:23.304Z,25.15
2023-04-04T00:27:23.289Z,25.18
2023-04-04T00:28:23.277Z,25.19
2023-04-04T00:29:23.313Z,25.18
2023-04-04T00:30:23.278Z,25.19
2023-04-04T00:31:23.347Z,25.20
2023-04-04T00:32:23.432Z,25.20
2023-04-04T00:33:23.353Z,25.20
2023-04-04T00:34:23.282Z,25.19
2023-04-04T00:35:23.280Z,25.19
2023-04-04T00:36:23.304Z,25.20
2023-04-04T00:37:23.289Z,25.19
2023-04-04T00:38:23.312Z,25.22
2023-04-04T00:39:23.299Z,25.23
2023-04-04T00:40:23.293Z,25.22
2023-04-04T00:41:23.299Z,25.20
2023-04-04T00:42:23.300Z,25.22
2023-04-04T00:43:23.306Z,25.20
2023-04-04T00:44:23.325Z,25.22
2023-04-04T00:45:23.471Z,25.23
2023-04-04T00:46:23.312Z,25.22
2023-04-04T00:47:23.446Z,25.23
2023-04-04T00:48:23.310Z,25.23
2023-04-04T00:49:23.298Z,25.25
2023-04-04T00:50:23.301Z,25.20
2023-04-04T00:51:23.288Z,25.23
2023-04-04T00:52:23.347Z,25.23
2023-04-04T00:53:23.300Z,25.25
2023-04-04T00:54:23.289Z,25.20
2023-04-04T00:55:23.298Z,25.22
2023-04-04T00:56:23.288Z,25.23
2023-04-04T00:57:23.291Z,25.23
2023-04-04T00:58:23.285Z,25.22
2023-04-04T00:59:23.337Z,25.20
2023-04-04T01:00:23.277Z,25.22
2023-04-04T01:01:23.422Z,25.22
2023-04-04T01:02:23.310Z,25.22
2023-04-04T01:03:23.269Z,25.20
2023-04-04T01:04:23.360Z,25.20
2023-04-04T01:05:23.276Z,25.18
2023-04-04T01:06:23.270Z,25.22
2023-04-04T01:07:23.277Z,25.20
2023-04-04T01:08:23.286Z,25.20
2023-04-04T01:09:23.273Z,25.20
2023-04-04T01:10:23.275Z,25.20
2023-04-04T01:11:23.274Z,25.20
2023-04-04T01:12:23.282Z,25.19
2023-04-04T01:13:23.287Z,25.18
2023-04-04T01:14:23.311Z,25.19
2023-04-04T01:15:23.284Z,25.20
2023-04-04T01:16:23.345Z,25.19
2023-04-04T01:17:23.310Z,25.19
2023-04-04T01:18:23.299Z,25.20
2023-04-04T01:19:23.285Z,25.19
2023-04-04T01:20:23.290Z,25.19
2023-04-04T01:21:23.284Z,25.22
2023-04-04T01:22:23.287Z,25.20
2023-04-04T01:23:23.292Z,25.19
2023-04-04T01:24:23.280Z,25.18
2023-04-04T01:25:23.279Z,25.20
2023-04-04T01:26:23.288Z,25.20
2023-04-04T01:27:23.283Z,25.20
2023-04-04T01:28:23.291Z,25.20
2023-04-04T01:29:23.297Z,25.20
2023-04-04T01:30:23.287Z,25.20
2023-04-04T01:31:23.440Z,25.20
2023-04-04T01:32:23.334Z,25.22
2023-04-04T01:33:23.316Z,25.19
2023-04-04T01:34:23.295Z,25.18
2023-04-04T01:35:23.345Z,25.18
2023-04-04T01:36:23.345Z,25.19
2023-04-04T01:37:23.308Z,25.18
2023-04-04T01:38:23.307Z,25.16
2023-04-04T01:39:23.304Z,25.16
2023-04-04T01:40:23.296Z,25.18
2023-04-04T01:41:23.308Z,25.18
2023-04-04T01:42:23.314Z,25.18
2023-04-04T01:43:23.311Z,25.16
2023-04-04T01:44:23.309Z,25.18
2023-04-04T01:45:23.314Z,25.19
2023-04-04T01:46:23.367Z,25.16
2023-04-04T01:47:23.403Z,25.19
2023-04-04T01:48:23.313Z,25.16
2023-04-04T01:49:23.345Z,25.16
2023-04-04T01:50:23.329Z,25.19
2023-04-04T01:51:23.326Z,25.18
2023-04-04T01:52:23.325Z,25.18
2023-04-04T01:53:23.333Z,25.15
2023-04-04T01:54:23.344Z,25.16
2023-04-04T01:55:23.343Z,25.16
2023-04-04T01:56:23.348Z,25.19
2023-04-04T01:57:23.353Z,25.18
2023-04-04T01:58:23.360Z,25.18
2023-04-04T01:59:23.392Z,25.18
2023-04-04T02:00:23.370Z,25.18
2023-04-04T02:01:23.380Z,25.18
2023-04-04T02:02:23.382Z,25.18
2023-04-04T02:03:23.386Z,25.19
2023-04-04T02:04:23.431Z,25.18
2023-04-04T02:05:23.434Z,25.16
2023-04-04T02:06:23.383Z,25.15
2023-04-04T02:07:23.385Z,25.16
2023-04-04T02:08:23.386Z,25.16
2023-04-04T02:09:23.384Z,25.18
2023-04-04T02:10:23.386Z,25.16
2023-04-04T02:11:23.372Z,25.18
2023-04-04T02:12:23.376Z,25.16
2023-04-04T02:13:23.379Z,25.16
2023-04-04T02:14:23.394Z,25.13
2023-04-04T02:15:23.387Z,25.16
2023-04-04T02:16:23.518Z,25.15
2023-04-04T02:17:23.421Z,25.16
2023-04-04T02:18:23.394Z,25.16
2023-04-04T02:19:23.398Z,25.15
2023-04-04T02:20:23.443Z,25.19
2023-04-04T02:21:23.436Z,25.18
2023-04-04T02:22:23.418Z,25.18
2023-04-04T02:23:23.412Z,25.16
2023-04-04T02:24:23.422Z,25.15
2023-04-04T02:25:23.429Z,25.15
2023-04-04T02:26:23.434Z,25.16
2023-04-04T02:27:23.467Z,25.18
2023-04-04T02:28:23.447Z,25.16
2023-04-04T02:29:23.460Z,25.16
2023-04-04T02:30:23.450Z,25.12
2023-04-04T02:31:23.476Z,25.16
2023-04-04T02:32:23.568Z,25.13
2023-04-04T02:33:23.457Z,25.16
2023-04-04T02:34:23.473Z,25.16
2023-04-04T02:35:23.485Z,25.12
2023-04-04T02:36:23.522Z,25.13
2023-04-04T02:37:23.504Z,25.12
2023-04-04T02:38:23.490Z,25.15
2023-04-04T02:39:23.502Z,25.15
2023-04-04T02:40:23.508Z,25.15
2023-04-04T02:41:23.515Z,25.13
2023-04-04T02:42:23.517Z,25.16
2023-04-04T02:43:23.523Z,25.12
2023-04-04T02:44:23.533Z,25.12
2023-04-04T02:45:23.545Z,25.13
2023-04-04T02:46:23.580Z,25.15
2023-04-04T02:47:23.576Z,25.13
2023-04-04T02:48:23.569Z,25.13
2023-04-04T02:49:23.586Z,25.12
2023-04-04T02:50:23.583Z,25.11
2023-04-04T02:51:23.595Z,25.11
2023-04-04T02:52:23.578Z,25.13
2023-04-04T02:53:23.612Z,25.12
2023-04-04T02:54:23.619Z,25.12
2023-04-04T02:55:23.613Z,25.12
2023-04-04T02:56:23.630Z,25.13
2023-04-04T02:57:23.634Z,25.12
2023-04-04T02:58:23.644Z,25.09
2023-04-04T02:59:23.720Z,25.12
2023-04-04T03:00:23.645Z,25.13
2023-04-04T03:01:23.711Z,25.12
2023-04-04T03:02:23.723Z,25.13
2023-04-04T03:03:23.844Z,25.12
2023-04-04T03:04:23.688Z,25.12
2023-04-04T03:05:23.698Z,25.11
2023-04-04T03:06:23.712Z,25.11
2023-04-04T03:07:23.716Z,25.13
2023-04-04T03:08:23.732Z,25.12
2023-04-04T03:09:23.755Z,25.11
2023-04-04T03:10:23.732Z,25.11
2023-04-04T03:11:23.752Z,25.15
2023-04-04T03:12:23.758Z,25.11
2023-04-04T03:13:23.768Z,25.12
2023-04-04T03:14:23.777Z,25.12
2023-04-04T03:15:23.782Z,25.12
2023-04-04T03:16:23.834Z,25.12
2023-04-04T03:17:23.821Z,25.12
2023-04-04T03:18:23.812Z,25.13
2023-04-04T03:19:23.816Z,25.11
2023-04-04T03:20:23.832Z,25.11
2023-04-04T03:21:23.843Z,25.11
2023-04-04T03:22:23.844Z,25.15
2023-04-04T03:23:23.840Z,25.12
2023-04-04T03:24:23.850Z,25.09
2023-04-04T03:25:23.901Z,25.12
2023-04-04T03:26:23.878Z,25.12
2023-04-04T03:27:23.899Z,25.12
2023-04-04T03:28:23.892Z,25.12
2023-04-04T03:29:23.908Z,25.11
2023-04-04T03:30:23.924Z,25.11
2023-04-04T03:31:23.934Z,25.12
2023-04-04T03:32:23.968Z,25.11
2023-04-04T03:33:23.944Z,25.09
2023-04-04T03:34:23.952Z,25.12
2023-04-04T03:35:23.987Z,25.09
2023-04-04T03:36:23.959Z,25.09
2023-04-04T03:37:23.972Z,25.08
2023-04-04T03:38:23.975Z,25.09
2023-04-04T03:39:23.996Z,25.11
2023-04-04T03:40:24.008Z,25.09
2023-04-04T03:41:24.041Z,25.11
2023-04-04T03:42:24.029Z,25.11
2023-04-04T03:43:24.033Z,25.09
2023-04-04T03:44:24.045Z,25.12
2023-04-04T03:45:24.053Z,25.09
2023-04-04T03:46:24.113Z,25.09
2023-04-04T03:47:24.110Z,25.09
2023-04-04T03:48:24.082Z,25.09
2023-04-04T03:49:24.106Z,25.08
2023-04-04T03:50:24.094Z,25.09
2023-04-04T03:51:24.104Z,25.11
2023-04-04T03:52:24.142Z,25.09
2023-04-04T03:53:24.126Z,25.12
2023-04-04T03:54:24.149Z,25.08
2023-04-04T03:55:24.155Z,25.11
2023-04-04T03:56:24.148Z,25.11
2023-04-04T03:57:24.175Z,25.11
2023-04-04T03:58:24.195Z,25.09
2023-04-04T03:59:24.229Z,25.09
2023-04-04T04:00:24.184Z,25.09
2023-04-04T04:01:24.197Z,25.09
2023-04-04T04:02:24.267Z,25.09
2023-04-04T04:03:24.391Z,25.09
2023-04-04T04:04:24.264Z,25.11
2023-04-04T04:05:24.229Z,25.12
2023-04-04T04:06:24.231Z,25.08
2023-04-04T04:07:24.249Z,25.08
2023-04-04T04:08:25.335Z,25.09
2023-04-04T04:09:24.265Z,25.08
2023-04-04T04:10:24.274Z,25.09
2023-04-04T04:11:24.277Z,25.11
2023-04-04T04:12:24.280Z,25.11
2023-04-04T04:13:24.315Z,25.09
2023-04-04T04:14:24.284Z,25.11
2023-04-04T04:15:24.301Z,25.09
2023-04-04T04:16:24.350Z,25.09
2023-04-04T04:17:24.369Z,25.09
2023-04-04T04:18:24.338Z,25.08
2023-04-04T04:19:24.344Z,25.11
2023-04-04T04:20:24.346Z,25.11
2023-04-04T04:21:24.356Z,25.08
2023-04-04T04:22:24.365Z,25.09
2023-04-04T04:23:24.386Z,25.11
2023-04-04T04:24:24.397Z,25.08
2023-04-04T04:25:24.401Z,25.11
2023-04-04T04:26:24.409Z,25.08
2023-04-04T04:27:24.410Z,25.08
2023-04-04T04:28:24.423Z,25.11
2023-04-04T04:29:24.445Z,25.11
2023-04-04T04:31:23.416Z,25.06
2023-04-04T04:32:24.467Z,25.08
2023-04-04T04:33:24.397Z,25.05
2023-04-04T04:34:24.390Z,25.09
2023-04-04T04:35:24.380Z,25.09
2023-04-04T04:36:24.428Z,25.08
2023-04-04T04:37:24.383Z,25.11
2023-04-04T04:38:24.400Z,25.09
2023-04-04T04:39:24.376Z,25.11
2023-04-04T04:40:24.343Z,25.09
2023-04-04T04:41:24.339Z,25.11
2023-04-04T04:42:24.334Z,25.09
2023-04-04T04:43:24.325Z,25.08
2023-04-04T04:44:24.329Z,25.06
2023-04-04T04:45:24.344Z,25.06
2023-04-04T04:46:24.349Z,25.09
2023-04-04T04:47:24.356Z,25.05
2023-04-04T04:48:24.308Z,25.08
2023-04-04T04:49:24.335Z,25.08
2023-04-04T04:50:24.292Z,25.06
2023-04-04T04:51:24.276Z,25.08
2023-04-04T04:52:24.280Z,25.09
2023-04-04T04:53:24.269Z,25.08
2023-04-04T04:54:24.260Z,25.06
2023-04-04T04:55:24.279Z,25.05
2023-04-04T04:56:24.252Z,25.06
2023-04-04T04:57:24.238Z,25.06
2023-04-04T04:58:25.880Z,25.08
2023-04-04T04:59:24.336Z,25.06
2023-04-04T05:00:24.741Z,25.06
2023-04-04T05:01:24.343Z,25.06
2023-04-04T05:02:24.233Z,25.09
2023-04-04T05:03:24.227Z,25.06
2023-04-04T05:04:24.175Z,25.06
2023-04-04T05:05:24.177Z,25.05
2023-04-04T05:06:24.177Z,25.06
2023-04-04T05:07:24.163Z,25.06
2023-04-04T05:08:24.153Z,25.06
2023-04-04T05:09:24.148Z,25.06
2023-04-04T05:10:24.144Z,25.06
2023-04-04T05:11:24.139Z,25.06
2023-04-04T05:12:24.122Z,25.08
2023-04-04T05:13:24.115Z,25.08
2023-04-04T05:14:24.110Z,25.06
2023-04-04T05:15:24.110Z,25.06
2023-04-04T05:16:24.129Z,25.08
2023-04-04T05:17:24.160Z,25.06
2023-04-04T05:18:24.082Z,25.08
2023-04-04T05:19:24.180Z,25.08
2023-04-04T05:20:24.063Z,25.06
2023-04-04T05:21:24.061Z,25.06
2023-04-04T05:22:24.050Z,25.06
2023-04-04T05:23:24.057Z,25.09
2023-04-04T05:24:24.035Z,25.08
2023-04-04T05:25:24.030Z,25.08
2023-04-04T05:26:24.028Z,25.08
2023-04-04T05:27:24.030Z,25.06
2023-04-04T05:28:24.008Z,25.06
2023-04-04T05:29:24.025Z,25.05
2023-04-04T05:30:24.012Z,25.06
2023-04-04T05:31:24.014Z,25.05
2023-04-04T05:32:24.072Z,25.08
2023-04-04T05:33:24.005Z,25.05
2023-04-04T05:34:23.976Z,25.05
2023-04-04T05:35:24.003Z,25.06
2023-04-04T05:36:23.987Z,25.06
2023-04-04T05:37:23.970Z,25.08
2023-04-04T05:38:23.957Z,25.06
2023-04-04T05:39:23.948Z,25.11
2023-04-04T05:40:23.946Z,25.09
2023-04-04T05:41:23.933Z,25.05
2023-04-04T05:42:23.943Z,25.06
2023-04-04T05:43:23.926Z,25.06
2023-04-04T05:44:23.919Z,25.08
2023-04-04T05:45:23.906Z,25.08
2023-04-04T05:46:23.946Z,25.06
2023-04-04T05:47:23.910Z,25.08
2023-04-04T05:48:23.875Z,25.06
2023-04-04T05:49:23.893Z,25.05
2023-04-04T05:50:23.869Z,25.08
2023-04-04T05:51:23.870Z,25.09
2023-04-04T05:52:23.888Z,25.09
2023-04-04T05:53:23.904Z,25.08
2023-04-04T05:54:23.894Z,25.09
2023-04-04T05:55:23.909Z,25.09
2023-04-04T05:56:23.913Z,25.08
2023-04-04T05:57:25.216Z,25.09
2023-04-04T05:58:23.965Z,25.08
2023-04-04T05:59:24.005Z,25.11
2023-04-04T06:00:23.961Z,25.08
2023-04-04T06:01:23.966Z,25.11
2023-04-04T06:02:24.030Z,25.05
2023-04-04T06:03:24.120Z,25.09
2023-04-04T06:04:24.008Z,25.11
2023-04-04T06:05:24.012Z,25.12
2023-04-04T06:06:24.085Z,25.09
2023-04-04T06:07:24.011Z,25.08
2023-04-04T06:08:24.009Z,25.09
2023-04-04T06:09:24.017Z,25.11
2023-04-04T06:10:24.019Z,25.12
2023-04-04T06:11:24.282Z,25.11
2023-04-04T06:12:24.044Z,25.11
2023-04-04T06:13:24.037Z,25.11
2023-04-04T06:14:24.051Z,25.11
2023-04-04T06:15:24.044Z,25.12
2023-04-04T06:16:24.108Z,25.12
2023-04-04T06:17:24.054Z,25.13
2023-04-04T06:18:24.056Z,25.13
2023-04-04T06:19:24.063Z,25.11
2023-04-04T06:20:24.082Z,25.13
2023-04-04T06:21:24.098Z,25.15
2023-04-04T06:22:24.082Z,25.13
2023-04-04T06:23:24.080Z,25.13
2023-04-04T06:24:24.083Z,25.15
2023-04-04T06:25:24.089Z,25.15
2023-04-04T06:26:24.097Z,25.13
2023-04-04T06:27:24.108Z,25.16
2023-04-04T06:28:24.127Z,25.16
2023-04-04T06:29:24.120Z,25.13
2023-04-04T06:30:24.127Z,25.16
2023-04-04T06:31:24.172Z,25.19
2023-04-04T06:32:24.231Z,25.19
2023-04-04T06:33:24.131Z,25.16
2023-04-04T06:34:24.130Z,25.15
2023-04-04T06:35:24.136Z,25.19
2023-04-04T06:36:24.167Z,25.16
2023-04-04T06:37:24.165Z,25.19
2023-04-04T06:38:24.139Z,25.16
2023-04-04T06:39:24.142Z,25.16
2023-04-04T06:40:24.150Z,25.20
2023-04-04T06:41:24.140Z,25.19
2023-04-04T06:42:24.131Z,25.20
2023-04-04T06:43:24.135Z,25.22
2023-04-04T06:44:24.127Z,25.20
2023-04-04T06:45:24.132Z,25.22
2023-04-04T06:46:24.199Z,25.20
2023-04-04T06:47:24.151Z,25.23
2023-04-04T06:48:24.155Z,25.23
2023-04-04T06:49:24.127Z,25.23
2023-04-04T06:50:24.110Z,25.25
2023-04-04T06:51:24.116Z,25.22
2023-04-04T06:52:24.104Z,25.23
2023-04-04T06:53:24.123Z,25.23
2023-04-04T06:54:24.112Z,25.23
2023-04-04T06:55:24.111Z,25.23
2023-04-04T06:56:24.113Z,25.23
2023-04-04T06:57:24.106Z,25.25
2023-04-04T06:58:24.109Z,25.26
2023-04-04T06:59:24.175Z,25.22
2023-04-04T07:00:24.111Z,25.25
2023-04-04T07:01:24.177Z,25.28
2023-04-04T07:02:24.140Z,25.26
2023-04-04T07:03:24.129Z,25.26
2023-04-04T07:04:24.780Z,25.25
2023-04-04T07:05:24.108Z,25.28
2023-04-04T07:06:25.939Z,25.29
2023-04-04T07:07:24.087Z,25.29
2023-04-04T07:08:24.081Z,25.28
2023-04-04T07:09:29.077Z,25.29
2023-04-04T07:10:24.077Z,25.29
2023-04-04T07:11:24.081Z,25.30
2023-04-04T07:12:24.065Z,25.32
2023-04-04T07:13:24.051Z,25.29
2023-04-04T07:14:24.046Z,25.33
2023-04-04T07:15:24.043Z,25.32
2023-04-04T07:16:24.049Z,25.32
2023-04-04T07:17:25.371Z,25.32
2023-04-04T07:18:24.097Z,25.33
2023-04-04T07:19:24.130Z,25.32
2023-04-04T07:20:24.120Z,25.33
2023-04-04T07:21:24.085Z,25.34
2023-04-04T07:22:24.078Z,25.33
2023-04-04T07:23:24.075Z,25.33
2023-04-04T07:24:24.070Z,25.33
2023-04-04T07:25:24.099Z,25.32
2023-04-04T07:26:24.074Z,25.32
2023-04-04T07:27:24.069Z,25.33
2023-04-04T07:28:24.063Z,25.32
2023-04-04T07:29:24.100Z,25.34
2023-04-04T07:30:24.056Z,25.34
2023-04-04T07:31:24.079Z,25.33
2023-04-04T07:32:24.771Z,25.36
2023-04-04T07:33:24.043Z,25.37
2023-04-04T07:34:24.044Z,25.34
2023-04-04T07:35:24.047Z,25.36
2023-04-04T07:36:24.039Z,25.32
2023-04-04T07:37:24.028Z,25.34
2023-04-04T07:38:24.045Z,25.33
2023-04-04T07:39:24.026Z,25.34
2023-04-04T07:40:24.024Z,25.33
2023-04-04T07:41:24.044Z,25.36
2023-04-04T07:42:24.040Z,25.32
2023-04-04T07:43:24.012Z,25.33
2023-04-04T07:44:24.009Z,25.36
2023-04-04T07:45:24.027Z,25.32
2023-04-04T07:46:24.057Z,25.32
2023-04-04T07:47:24.041Z,25.33
2023-04-04T07:48:23.985Z,25.32
2023-04-04T07:49:23.982Z,25.34
2023-04-04T07:50:23.977Z,25.34
2023-04-04T07:51:23.991Z,25.33
2023-04-04T07:52:23.980Z,25.32
2023-04-04T07:53:23.972Z,25.32
2023-04-04T07:54:23.974Z,25.34
2023-04-04T07:55:23.961Z,25.36
2023-04-04T07:56:23.965Z,25.34
2023-04-04T07:57:23.994Z,25.33
2023-04-04T07:58:23.950Z,25.34
2023-04-04T07:59:23.971Z,25.34
2023-04-04T08:00:23.958Z,25.34
2023-04-04T08:01:23.972Z,25.34
2023-04-04T08:02:24.129Z,25.39
2023-04-04T08:03:24.274Z,25.36
2023-04-04T08:04:24.042Z,25.36
2023-04-04T08:05:24.013Z,25.36
2023-04-04T08:06:24.022Z,25.36
2023-04-04T08:07:24.046Z,25.33
2023-04-04T08:08:24.065Z,25.33
2023-04-04T08:09:24.098Z,25.36
2023-04-04T08:10:24.119Z,25.34
2023-04-04T08:11:24.158Z,25.34
2023-04-04T08:12:24.178Z,25.34
2023-04-04T08:13:24.253Z,25.32
2023-04-04T08:14:24.252Z,25.33
2023-04-04T08:15:24.270Z,25.33
2023-04-04T08:16:24.350Z,25.34
2023-04-04T08:17:24.352Z,25.33
2023-04-04T08:18:24.356Z,25.37
2023-04-04T08:19:24.397Z,25.36
2023-04-04T08:20:24.411Z,25.36
2023-04-04T08:21:24.478Z,25.36
2023-04-04T08:22:24.492Z,25.33
2023-04-04T08:23:24.550Z,25.34
2023-04-04T08:24:26.427Z,25.37
2023-04-04T08:25:24.591Z,25.36
2023-04-04T08:26:24.587Z,25.37
2023-04-04T08:27:24.580Z,25.37
2023-04-04T08:28:24.586Z,25.36
2023-04-04T08:29:24.594Z,25.39
2023-04-04T08:30:24.573Z,25.36
2023-04-04T08:31:24.570Z,25.33
2023-04-04T08:32:24.560Z,25.36
2023-04-04T08:33:34.207Z,25.34
2023-04-04T08:34:24.530Z,25.34
2023-04-04T08:35:24.558Z,25.34
2023-04-04T08:36:24.512Z,25.32
2023-04-04T08:37:24.518Z,25.34
2023-04-04T08:38:24.510Z,25.34
2023-04-04T08:39:24.493Z,25.33
2023-04-04T08:40:24.497Z,25.34
2023-04-04T08:41:24.488Z,25.36
2023-04-04T08:42:24.490Z,25.37
2023-04-04T08:43:24.474Z,25.36
2023-04-04T08:44:24.464Z,25.39
2023-04-04T08:45:24.622Z,25.39
2023-04-04T08:46:24.482Z,25.40
2023-04-04T08:47:24.536Z,25.37
2023-04-04T08:48:24.446Z,25.37
2023-04-04T08:49:24.426Z,25.40
2023-04-04T08:50:24.422Z,25.39
2023-04-04T08:51:24.413Z,25.37
2023-04-04T08:52:24.409Z,25.39
2023-04-04T08:53:24.405Z,25.39
2023-04-04T08:54:24.394Z,25.36
2023-04-04T08:55:24.477Z,25.37
2023-04-04T08:56:24.374Z,25.39
2023-04-04T08:57:24.380Z,25.37
2023-04-04T08:58:24.482Z,25.39
2023-04-04T08:59:24.456Z,25.41
2023-04-04T09:00:24.359Z,25.40
2023-04-04T09:01:24.476Z,25.41
2023-04-04T09:02:24.484Z,25.41
2023-04-04T09:03:24.539Z,25.37
2023-04-04T09:04:24.518Z,25.39
2023-04-04T09:05:24.575Z,25.39
2023-04-04T09:06:24.630Z,25.41
2023-04-04T09:07:24.689Z,25.41
2023-04-04T09:08:24.827Z,25.40
2023-04-04T09:09:24.791Z,25.41
2023-04-04T09:10:24.839Z,25.43
2023-04-04T09:11:24.898Z,25.43
2023-04-04T09:12:24.969Z,25.46
2023-04-04T09:13:25.029Z,25.41
2023-04-04T09:14:25.086Z,25.41
2023-04-04T09:15:25.138Z,25.41
2023-04-04T09:16:25.245Z,25.41
2023-04-04T09:17:25.345Z,25.43
2023-04-04T09:18:25.338Z,25.43
2023-04-04T09:19:26.479Z,25.46
2023-04-04T09:20:25.455Z,25.44
2023-04-04T09:21:25.509Z,25.43
2023-04-04T09:22:25.585Z,25.41
2023-04-04T09:23:25.689Z,25.44
2023-04-04T09:24:25.710Z,25.44
2023-04-04T09:25:25.751Z,25.43
2023-04-04T09:26:25.793Z,25.44
2023-04-04T09:27:25.855Z,25.47
2023-04-04T09:28:25.916Z,25.41
2023-04-04T09:29:25.975Z,25.44
2023-04-04T09:30:26.018Z,25.46
2023-04-04T09:31:26.154Z,25.43
2023-04-04T09:32:26.168Z,25.43
2023-04-04T09:33:26.255Z,25.43
2023-04-04T09:34:26.274Z,25.43
2023-04-04T09:35:26.326Z,25.46
2023-04-04T09:36:26.374Z,25.44
2023-04-04T09:37:26.450Z,25.44
2023-04-04T09:38:26.509Z,25.43
2023-04-04T09:39:26.568Z,25.46
2023-04-04T09:40:26.710Z,25.44
2023-04-04T09:41:26.685Z,25.47
2023-04-04T09:42:26.751Z,25.46
2023-04-04T09:43:26.794Z,25.47
2023-04-04T09:44:26.885Z,25.47
2023-04-04T09:45:32.223Z,25.50
2023-04-04T09:46:26.971Z,25.48
2023-04-04T09:47:31.117Z,25.50
2023-04-04T09:48:26.933Z,25.48
2023-04-04T09:49:26.924Z,25.51
2023-04-04T09:50:26.903Z,25.50
2023-04-04T09:51:26.888Z,25.48
2023-04-04T09:52:26.889Z,25.48
2023-04-04T09:53:26.879Z,25.48
2023-04-04T09:54:30.168Z,25.48
2023-04-04T09:55:26.862Z,25.48
2023-04-04T09:56:26.857Z,25.50
2023-04-04T09:57:26.849Z,25.47
2023-04-04T09:58:26.844Z,25.47
2023-04-04T09:59:26.875Z,25.48
2023-04-04T10:00:26.833Z,25.46
2023-04-04T10:01:26.849Z,25.50
2023-04-04T10:02:26.820Z,25.51
2023-04-04T10:03:26.823Z,25.48
2023-04-04T10:04:27.235Z,25.50
2023-04-04T10:05:26.951Z,25.50
2023-04-04T10:06:27.006Z,25.50
2023-04-04T10:07:27.069Z,25.50
2023-04-04T10:08:27.171Z,25.50
2023-04-04T10:09:27.178Z,25.48
2023-04-04T10:10:27.247Z,25.51
2023-04-04T10:11:27.300Z,25.51
2023-04-04T10:12:27.368Z,25.53
2023-04-04T10:13:27.434Z,25.51
2023-04-04T10:14:27.492Z,25.54
2023-04-04T10:15:27.575Z,25.53
2023-04-04T10:16:27.621Z,25.56
2023-04-04T10:17:27.752Z,25.50
2023-04-04T10:18:27.736Z,25.54
2023-04-04T10:19:27.807Z,25.50
2023-04-04T10:20:27.866Z,25.51
2023-04-04T10:21:27.969Z,25.53
2023-04-04T10:22:28.006Z,25.53
2023-04-04T10:23:28.358Z,25.54
2023-04-04T10:24:28.126Z,25.50
2023-04-04T10:25:28.192Z,25.47
2023-04-04T10:26:28.261Z,25.50
2023-04-04T10:27:28.320Z,25.47
2023-04-04T10:28:28.374Z,25.51
2023-04-04T10:29:28.435Z,25.48
2023-04-04T10:30:28.503Z,25.51
2023-04-04T10:31:28.613Z,25.53
2023-04-04T10:32:28.692Z,25.51
2023-04-04T10:33:28.736Z,25.51
2023-04-04T10:34:28.757Z,25.51
2023-04-04T10:35:28.815Z,25.51
2023-04-04T10:36:28.866Z,25.50
2023-04-04T10:37:28.965Z,25.48
2023-04-04T10:38:29.010Z,25.51
2023-04-04T10:39:29.060Z,25.47
2023-04-04T10:40:29.127Z,25.50
2023-04-04T10:41:29.184Z,25.53
2023-04-04T10:42:29.238Z,25.50
2023-04-04T10:43:29.297Z,25.50
2023-04-04T10:44:29.370Z,25.51
2023-04-04T10:45:29.423Z,25.51
2023-04-04T10:46:29.516Z,25.53
2023-04-04T10:47:29.622Z,25.53
2023-04-04T10:48:29.614Z,25.56
2023-04-04T10:49:29.687Z,25.56
2023-04-04T10:50:29.744Z,25.54
2023-04-04T10:51:29.817Z,25.56
2023-04-04T10:52:29.881Z,25.51
2023-04-04T10:53:29.956Z,25.53
2023-04-04T10:54:29.997Z,25.54
2023-04-04T10:55:30.061Z,25.53
2023-04-04T10:56:30.124Z,25.53
2023-04-04T10:57:30.193Z,25.48
2023-04-04T10:58:30.252Z,25.51
2023-04-04T10:59:30.346Z,25.51
2023-04-04T11:00:30.389Z,25.51
2023-04-04T11:01:30.445Z,25.51
2023-04-04T11:02:30.569Z,25.51
2023-04-04T11:03:30.573Z,25.51
2023-04-04T11:04:30.668Z,25.48
2023-04-04T11:05:30.716Z,25.51
2023-04-04T11:06:30.754Z,25.51
2023-04-04T11:07:30.831Z,25.50
2023-04-04T11:08:30.886Z,25.51
2023-04-04T11:09:30.975Z,25.53
2023-04-04T11:10:31.004Z,25.54
2023-04-04T11:11:31.909Z,25.53
2023-04-04T11:12:31.157Z,25.53
2023-04-04T11:13:31.193Z,25.56
2023-04-04T11:14:31.251Z,25.50
2023-04-04T11:15:31.316Z,25.53
2023-04-04T11:16:31.421Z,25.53
2023-04-04T11:17:31.527Z,25.51
2023-04-04T11:18:34.069Z,25.50
2023-04-04T11:19:31.502Z,25.50
2023-04-04T11:20:31.495Z,25.51
2023-04-04T11:21:31.493Z,25.47
2023-04-04T11:22:31.480Z,25.48
2023-04-04T11:23:31.478Z,25.47
2023-04-04T11:24:31.471Z,25.48
2023-04-04T11:25:31.491Z,25.50
2023-04-04T11:26:31.455Z,25.51
2023-04-04T11:27:31.478Z,25.51
2023-04-04T11:28:31.446Z,25.51
2023-04-04T11:29:31.430Z,25.48
2023-04-04T11:30:31.420Z,25.47
2023-04-04T11:31:31.456Z,25.46
2023-04-04T11:32:31.419Z,25.47
2023-04-04T11:33:31.456Z,25.46
2023-04-04T11:34:31.406Z,25.46
2023-04-04T11:35:31.392Z,25.44
2023-04-04T11:36:31.375Z,25.46
2023-04-04T11:37:31.367Z,25.47
2023-04-04T11:38:31.366Z,25.47
2023-04-04T11:39:31.393Z,25.46
2023-04-04T11:40:31.356Z,25.48
2023-04-04T11:41:31.372Z,25.47
2023-04-04T11:42:31.401Z,25.48
2023-04-04T11:43:31.470Z,25.51
2023-04-04T11:44:31.515Z,25.50
2023-04-04T11:45:31.579Z,25.50
2023-04-04T11:46:31.673Z,25.51
2023-04-04T11:47:31.769Z,25.50
2023-04-04T11:48:31.774Z,25.50
2023-04-04T11:49:31.839Z,25.48
2023-04-04T11:50:31.894Z,25.50
2023-04-04T11:51:31.949Z,25.50
2023-04-04T11:52:32.002Z,25.47
2023-04-04T11:53:32.068Z,25.50
2023-04-04T11:54:32.156Z,25.50
2023-04-04T11:55:32.211Z,25.53
2023-04-04T11:56:32.263Z,25.51
2023-04-04T11:57:32.350Z,25.51
2023-04-04T11:58:32.394Z,25.50
2023-04-04T11:59:32.504Z,25.50
2023-04-04T12:00:32.510Z,25.51
2023-04-04T12:01:32.579Z,25.48
2023-04-04T12:02:32.682Z,25.51
2023-04-04T12:03:32.804Z,25.50
2023-04-04T12:04:32.843Z,25.51
2023-04-04T12:05:32.878Z,25.50
2023-04-04T12:06:32.886Z,25.51
2023-04-04T12:07:32.967Z,25.50
2023-04-04T12:08:33.011Z,25.51
2023-04-04T12:09:33.072Z,25.53
2023-04-04T12:10:33.132Z,25.51
2023-04-04T12:11:33.181Z,25.50
2023-04-04T12:12:33.274Z,25.50
2023-04-04T12:13:33.325Z,25.51
2023-04-04T12:14:33.370Z,25.53
2023-04-04T12:15:33.434Z,25.51
2023-04-04T12:16:33.550Z,25.53
2023-04-04T12:17:33.596Z,25.53
2023-04-04T12:18:33.610Z,25.56
2023-04-04T12:19:33.684Z,25.53
2023-04-04T12:20:33.733Z,25.56
2023-04-04T12:21:33.795Z,25.56
2023-04-04T12:22:33.850Z,25.53
2023-04-04T12:23:33.928Z,25.54
2023-04-04T12:24:33.981Z,25.54
2023-04-04T12:25:34.219Z,25.51
2023-04-04T12:26:34.107Z,25.54
2023-04-04T12:27:34.186Z,25.56
2023-04-04T12:28:34.229Z,25.53
2023-04-04T12:29:34.300Z,25.57
2023-04-04T12:30:34.333Z,25.54
2023-04-04T12:31:34.448Z,25.53
2023-04-04T12:32:34.494Z,25.54
2023-04-04T12:33:34.493Z,25.53
2023-04-04T12:34:34.730Z,25.54
2023-04-04T12:35:34.609Z,25.56
2023-04-04T12:36:34.661Z,25.54
2023-04-04T12:37:34.730Z,25.53
2023-04-04T12:38:34.777Z,25.54
2023-04-04T12:39:34.841Z,25.56
2023-04-04T12:40:34.915Z,25.53
2023-04-04T12:41:34.953Z,25.56
2023-04-04T12:42:34.993Z,25.56
2023-04-04T12:43:35.041Z,25.56
2023-04-04T12:44:35.138Z,25.56
2023-04-04T12:45:35.192Z,25.56
2023-04-04T12:46:35.271Z,25.56
2023-04-04T12:47:35.281Z,25.56
2023-04-04T12:48:35.333Z,25.56
2023-04-04T12:49:35.393Z,25.57
2023-04-04T12:50:35.441Z,25.58
2023-04-04T12:51:35.504Z,25.57
2023-04-04T12:52:35.555Z,25.56
2023-04-04T12:53:35.614Z,25.57